Pagrindinis puslapis
METAR-TAF:

METAR-TAF

Oro uostai :

Altenstadt, Vokietija

platuma: 47-50N, ilguma: 010-52E, Aukštis: 739 m

Dabartinis oras

Ataskaita buvo paskelbta 17 minutes, ne 09:20 UTC
Vėjas 10 kt iš Rytų
Temperatūra 10°C
Drėgmė 66%
Slėgis 1027 hPa
Matomumas 10 km arba daugiau
Su prošvaistėmis ne aukštis 30000 ft

METAR: ETHA 200920Z 08010KT 9999 BKN300 10/04 Q1027 BLU+BLU+

Laikas: 11:37 (09:37 UTC)

Prognozė

Ataskaita buvo paskelbta 2 valandos ir 17 minutes, ne 07:20 UTC
Prognozė galioja nuo 20 metu 08 UTC su 20 metu 17 UTC
Vėjas 7 kt iš Rytų/Šiaurės Rytų su gūsio iki 17 kt
Matomumas 10 km arba daugiau
Mažai debesys ne aukštis 3000 ft
Su prošvaistėmis ne aukštis 30000 ft

TAF: ETHA 200720Z 2008/2017 07007G17KT 9999 NSW FEW030 BKN300

Orai ataskaitas ir orų prognozės (METAR, TAF).

turimą stotys yra geltonos ir raudonos taškus žemėlapyje.

Perkelti pele per norėdami pamatyti stoties vardą.

Tada spustelėkite, norėdami matyti oro stebėjimo ir prognozės.

Norėdami pakeisti žemėlapį: spustelėkite ant žalios mygtukų su juodo kryžiaus žemyn,; žalią mygtuką su brūkšneliu, jei norite nutolinti; arba žalių rodyklių gretimoms žemėlapius.


METAR-TAF: